Time;durP1;ratioP1;P1;durP2;ratioP2;P2;SDS_P1;SDS_P2;PMS_P1;PMS_P2;Temp;Humidity;BMP_temperature;BMP_pressure;BME280_temperature;BME280_humidity;BME280_pressure;Samples;Min_cycle;Max_cycle;Signal;HPM_P1;HPM_P2
2022/11/12 00:02:18;;;;;;;80.53;32.77;;;;;;;;;;5065912;28;20515;-61
2022/11/12 00:05:02;;;;;;;84.53;33.77;;;;;;;;;;5067294;28;20028;-61
2022/11/12 00:07:46;;;;;;;79.13;30.97;;;;;;;;;;5068330;28;20016;-61
2022/11/12 00:10:30;;;;;;;70.13;31.50;;;;;;;;;;5070531;28;20028;-60
2022/11/12 00:13:14;;;;;;;67.00;29.50;;;;;;;;;;5071072;28;20151;-60
2022/11/12 00:15:58;;;;;;;80.00;30.60;;;;;;;;;;5067908;28;20028;-61
2022/11/12 00:18:41;;;;;;;82.17;32.50;;;;;;;;;;5068287;28;20025;-61
2022/11/12 00:21:25;;;;;;;76.53;31.53;;;;;;;;;;5064914;28;20028;-61
2022/11/12 00:24:09;;;;;;;77.83;31.87;;;;;;;;;;5069033;28;20486;-61
2022/11/12 00:26:53;;;;;;;77.53;31.60;;;;;;;;;;5063744;28;20032;-62
2022/11/12 00:29:37;;;;;;;85.63;35.23;;;;;;;;;;5069183;28;20024;-61
2022/11/12 00:32:21;;;;;;;91.93;35.17;;;;;;;;;;5068382;28;20029;-61
2022/11/12 00:35:05;;;;;;;82.43;34.80;;;;;;;;;;5066032;28;20424;-61
2022/11/12 00:37:49;;;;;;;87.50;37.30;;;;;;;;;;5070239;28;20420;-61
2022/11/12 00:40:33;;;;;;;91.90;37.73;;;;;;;;;;5064444;28;20044;-61
2022/11/12 00:43:16;;;;;;;87.47;38.50;;;;;;;;;;5067683;28;20090;-61
2022/11/12 00:46:00;;;;;;;97.80;40.10;;;;;;;;;;5068629;28;20123;-60
2022/11/12 00:48:44;;;;;;;99.10;40.40;;;;;;;;;;5076833;28;20469;-62
2022/11/12 00:51:28;;;;;;;90.63;38.53;;;;;;;;;;5067151;28;20025;-61
2022/11/12 00:54:11;;;;;;;94.97;38.30;;;;;;;;;;5068637;28;20048;-61
2022/11/12 00:56:55;;;;;;;95.80;39.10;;;;;;;;;;5072185;28;20043;-61
2022/11/12 00:59:39;;;;;;;91.20;38.03;;;;;;;;;;5074471;28;20111;-61
2022/11/12 01:02:23;;;;;;;93.83;39.30;;;;;;;;;;5075085;28;20559;-62
2022/11/12 01:05:07;;;;;;;97.63;39.17;;;;;;;;;;5070831;28;20024;-61
2022/11/12 01:07:51;;;;;;;103.53;41.07;;;;;;;;;;5073501;28;20028;-62
2022/11/12 01:10:34;;;;;;;98.60;39.90;;;;;;;;;;5072158;28;20427;-61
2022/11/12 01:13:18;;;;;;;97.83;39.77;;;;;;;;;;5075371;28;20032;-61
2022/11/12 01:16:02;;;;;;;94.83;40.50;;;;;;;;;;5074394;28;20024;-61
2022/11/12 01:18:46;;;;;;;112.03;42.03;;;;;;;;;;5074883;28;20024;-61
2022/11/12 01:21:30;;;;;;;102.27;39.50;;;;;;;;;;5074004;28;20406;-60
2022/11/12 01:24:13;;;;;;;96.53;37.57;;;;;;;;;;5070419;28;20093;-61
2022/11/12 01:26:57;;;;;;;95.07;37.30;;;;;;;;;;5078761;28;20058;-61
2022/11/12 01:29:41;;;;;;;91.50;37.03;;;;;;;;;;5074900;28;20036;-61
2022/11/12 01:32:26;;;;;;;87.43;38.23;;;;;;;;;;5074541;28;20115;-61
2022/11/12 01:35:10;;;;;;;93.13;38.53;;;;;;;;;;5069740;28;20032;-61
2022/11/12 01:37:54;;;;;;;93.57;37.87;;;;;;;;;;5075080;28;20082;-61
2022/11/12 01:40:38;;;;;;;96.83;37.03;;;;;;;;;;5073613;28;20502;-61
2022/11/12 01:43:22;;;;;;;97.00;38.70;;;;;;;;;;5071183;28;20028;-61
2022/11/12 01:46:06;;;;;;;88.43;37.70;;;;;;;;;;5070584;28;20028;-62
2022/11/12 01:48:50;;;;;;;98.00;38.23;;;;;;;;;;5069250;28;20115;-61
2022/11/12 01:51:33;;;;;;;88.00;37.33;;;;;;;;;;5074200;28;20024;-61
2022/11/12 01:54:17;;;;;;;102.70;38.97;;;;;;;;;;5074838;28;20052;-61
2022/11/12 01:57:01;;;;;;;97.73;39.30;;;;;;;;;;5067915;28;20039;-61
2022/11/12 01:59:45;;;;;;;108.20;43.17;;;;;;;;;;5071953;28;20035;-61
2022/11/12 02:02:28;;;;;;;102.00;39.93;;;;;;;;;;5071175;28;20028;-64
2022/11/12 02:05:12;;;;;;;89.30;36.60;;;;;;;;;;5071707;28;20032;-63
2022/11/12 02:07:56;;;;;;;91.27;38.07;;;;;;;;;;5074832;28;20028;-63
2022/11/12 02:10:40;;;;;;;97.90;38.23;;;;;;;;;;5070994;28;20059;-63
2022/11/12 02:16:26;;;;;;;104.97;41.27;;;;;;;;;;5064584;28;20031;-63
2022/11/12 02:19:10;;;;;;;105.13;41.23;;;;;;;;;;5070334;28;20028;-63
2022/11/12 02:21:54;;;;;;;98.63;39.30;;;;;;;;;;5069240;28;20183;-63
2022/11/12 02:24:38;;;;;;;97.57;40.07;;;;;;;;;;5073115;28;20029;-63
2022/11/12 02:27:21;;;;;;;102.13;37.73;;;;;;;;;;5066418;28;20507;-63
2022/11/12 02:30:08;;;;;;;100.20;38.90;;;;;;;;;;5073314;28;20023;-63
2022/11/12 02:32:52;;;;;;;98.97;37.17;;;;;;;;;;5069660;28;20082;-63
2022/11/12 02:35:36;;;;;;;99.97;35.90;;;;;;;;;;5061933;28;20518;-63
2022/11/12 02:38:19;;;;;;;106.50;37.80;;;;;;;;;;5069652;28;20039;-63
2022/11/12 02:41:03;;;;;;;98.73;35.27;;;;;;;;;;5067219;28;20044;-64
2022/11/12 02:43:47;;;;;;;102.03;35.50;;;;;;;;;;5068257;28;20494;-64
2022/11/12 02:46:31;;;;;;;96.43;34.00;;;;;;;;;;5070903;28;20032;-63
2022/11/12 02:49:15;;;;;;;90.67;31.80;;;;;;;;;;5069136;28;20522;-63
2022/11/12 02:51:58;;;;;;;84.73;31.57;;;;;;;;;;5071256;28;20463;-63
2022/11/12 02:54:42;;;;;;;86.13;31.50;;;;;;;;;;5069336;28;20151;-63
2022/11/12 02:57:26;;;;;;;87.07;32.87;;;;;;;;;;5067235;28;20104;-63
2022/11/12 03:00:09;;;;;;;87.73;32.60;;;;;;;;;;5071398;28;20558;-64
2022/11/12 03:03:00;;;;;;;77.27;30.23;;;;;;;;;;5073543;28;20024;-63
2022/11/12 03:05:43;;;;;;;85.87;33.00;;;;;;;;;;5071044;28;20079;-61
2022/11/12 03:08:27;;;;;;;81.73;31.77;;;;;;;;;;5069811;28;20408;-63
2022/11/12 03:11:11;;;;;;;85.27;32.93;;;;;;;;;;5070510;28;20043;-63
2022/11/12 03:13:55;;;;;;;92.83;36.33;;;;;;;;;;5070963;28;20107;-63
2022/11/12 03:16:38;;;;;;;96.97;37.37;;;;;;;;;;5066062;28;20488;-63
2022/11/12 03:19:22;;;;;;;94.63;36.63;;;;;;;;;;5067769;28;20025;-63
2022/11/12 03:22:06;;;;;;;94.33;36.57;;;;;;;;;;5065962;28;20587;-64
2022/11/12 03:24:50;;;;;;;107.43;39.73;;;;;;;;;;5069176;28;20075;-63
2022/11/12 03:27:34;;;;;;;94.17;37.70;;;;;;;;;;5066286;28;20052;-63
2022/11/12 03:30:18;;;;;;;106.87;39.27;;;;;;;;;;5071286;28;20486;-63
2022/11/12 03:33:01;;;;;;;94.33;36.40;;;;;;;;;;5068527;28;20032;-64
2022/11/12 03:35:45;;;;;;;93.87;36.47;;;;;;;;;;5066678;28;20038;-63
2022/11/12 03:38:29;;;;;;;101.43;39.30;;;;;;;;;;5065397;28;20032;-63
2022/11/12 03:41:13;;;;;;;102.17;38.37;;;;;;;;;;5066513;28;20097;-63
2022/11/12 03:43:57;;;;;;;104.73;40.77;;;;;;;;;;5069812;28;20379;-63
2022/11/12 03:46:40;;;;;;;113.97;41.70;;;;;;;;;;5067619;28;20039;-63
2022/11/12 03:49:24;;;;;;;117.13;44.63;;;;;;;;;;5069761;28;20400;-63
2022/11/12 03:52:08;;;;;;;113.97;45.23;;;;;;;;;;5069172;28;20104;-63
2022/11/12 03:54:52;;;;;;;110.53;41.93;;;;;;;;;;5070008;28;20087;-63
2022/11/12 03:57:35;;;;;;;121.63;43.53;;;;;;;;;;5070219;28;20035;-63
2022/11/12 04:00:19;;;;;;;120.77;43.30;;;;;;;;;;5061733;28;20040;-63
2022/11/12 04:03:03;;;;;;;118.60;44.20;;;;;;;;;;5072025;28;20036;-64
2022/11/12 04:08:49;;;;;;;126.13;47.90;;;;;;;;;;5070084;28;20075;-63
2022/11/12 04:11:33;;;;;;;131.73;48.73;;;;;;;;;;5071256;28;20021;-63
2022/11/12 04:14:17;;;;;;;129.07;48.03;;;;;;;;;;5067005;28;20034;-63
2022/11/12 04:23:07;;;;;;;120.97;46.33;;;;;;;;;;5059385;28;20491;-63
2022/11/12 04:31:56;;;;;;;110.43;44.60;;;;;;;;;;5066671;28;20035;-63
2022/11/12 04:34:40;;;;;;;118.17;45.73;;;;;;;;;;5065739;28;20032;-63
2022/11/12 04:37:25;;;;;;;125.13;45.37;;;;;;;;;;5070053;28;20380;-63
2022/11/12 04:46:15;;;;;;;131.70;46.20;;;;;;;;;;5063398;28;20036;-63
2022/11/12 04:48:59;;;;;;;135.73;47.97;;;;;;;;;;5065675;28;20379;-63
2022/11/12 04:54:45;;;;;;;118.23;44.00;;;;;;;;;;5067611;28;20075;-63
2022/11/12 04:57:29;;;;;;;120.70;44.23;;;;;;;;;;5067926;28;20079;-63
2022/11/12 05:00:13;;;;;;;127.77;46.60;;;;;;;;;;5064561;28;20032;-63
2022/11/12 05:02:56;;;;;;;128.43;47.07;;;;;;;;;;5069830;28;20483;-63
2022/11/12 05:05:40;;;;;;;143.30;50.13;;;;;;;;;;5065041;28;20024;-63
2022/11/12 05:08:24;;;;;;;130.37;48.57;;;;;;;;;;5070935;28;20024;-63
2022/11/12 05:11:08;;;;;;;129.70;48.00;;;;;;;;;;5066206;28;20082;-63
2022/11/12 05:13:51;;;;;;;145.67;49.10;;;;;;;;;;5063502;28;20033;-64
2022/11/12 05:16:35;;;;;;;125.80;46.47;;;;;;;;;;5069173;28;20499;-63
2022/11/12 05:19:20;;;;;;;126.93;45.43;;;;;;;;;;5069922;28;20376;-64
2022/11/12 05:22:07;;;;;;;124.53;46.17;;;;;;;;;;5067530;28;20043;-64
2022/11/12 05:24:51;;;;;;;127.30;45.87;;;;;;;;;;5069789;28;20353;-63
2022/11/12 05:27:34;;;;;;;132.63;47.30;;;;;;;;;;5069273;28;20104;-63
2022/11/12 05:30:18;;;;;;;135.67;48.20;;;;;;;;;;5068368;28;20028;-63
2022/11/12 05:33:02;;;;;;;131.63;47.57;;;;;;;;;;5068281;28;20079;-63
2022/11/12 05:35:46;;;;;;;135.63;47.20;;;;;;;;;;5075204;28;20024;-63
2022/11/12 05:38:30;;;;;;;138.60;47.20;;;;;;;;;;5069188;28;20098;-63
2022/11/12 05:41:14;;;;;;;140.43;47.67;;;;;;;;;;5068210;28;20031;-63
2022/11/12 05:43:57;;;;;;;140.40;48.73;;;;;;;;;;5070731;28;20036;-63
2022/11/12 05:46:41;;;;;;;133.40;46.57;;;;;;;;;;5069923;28;20013;-63
2022/11/12 05:49:25;;;;;;;143.67;47.83;;;;;;;;;;5069583;28;20644;-63
2022/11/12 05:52:09;;;;;;;133.40;47.87;;;;;;;;;;5070251;28;20392;-63
2022/11/12 05:54:52;;;;;;;143.70;48.60;;;;;;;;;;5071773;28;20033;-63
2022/11/12 05:57:36;;;;;;;148.40;49.07;;;;;;;;;;5069187;28;20107;-63
2022/11/12 06:00:20;;;;;;;131.07;47.73;;;;;;;;;;5067761;28;20056;-63
2022/11/12 06:03:07;;;;;;;135.40;47.60;;;;;;;;;;5068672;28;20036;-63
2022/11/12 06:05:51;;;;;;;130.37;47.23;;;;;;;;;;5065683;28;20467;-63
2022/11/12 06:08:35;;;;;;;121.70;45.03;;;;;;;;;;5074669;28;20017;-63
2022/11/12 06:11:19;;;;;;;133.93;48.27;;;;;;;;;;5070226;28;20122;-63
2022/11/12 06:14:03;;;;;;;133.93;49.60;;;;;;;;;;5072548;28;20066;-63
2022/11/12 06:16:46;;;;;;;126.93;48.07;;;;;;;;;;5067355;28;20024;-64
2022/11/12 06:19:30;;;;;;;136.10;48.13;;;;;;;;;;5071594;28;20035;-63
2022/11/12 06:22:14;;;;;;;127.77;46.27;;;;;;;;;;5068480;28;20031;-63
2022/11/12 06:24:58;;;;;;;131.17;47.00;;;;;;;;;;5069737;28;20162;-63
2022/11/12 06:27:41;;;;;;;154.40;51.37;;;;;;;;;;5062721;28;20048;-63
2022/11/12 06:30:25;;;;;;;139.70;49.77;;;;;;;;;;5070122;28;20025;-63
2022/11/12 06:33:09;;;;;;;153.57;51.10;;;;;;;;;;5068065;28;20043;-64
2022/11/12 06:35:53;;;;;;;152.90;51.40;;;;;;;;;;5070744;28;20028;-63
2022/11/12 06:38:37;;;;;;;140.37;46.97;;;;;;;;;;5067742;28;20391;-64
2022/11/12 06:41:20;;;;;;;140.50;50.13;;;;;;;;;;5069109;28;20500;-63
2022/11/12 06:44:04;;;;;;;141.37;47.47;;;;;;;;;;5071484;28;20016;-63
2022/11/12 06:46:48;;;;;;;132.77;47.37;;;;;;;;;;5067481;28;20116;-64
2022/11/12 06:49:32;;;;;;;136.93;46.53;;;;;;;;;;5068315;28;20095;-63
2022/11/12 06:52:15;;;;;;;137.97;46.50;;;;;;;;;;5067199;28;20403;-63
2022/11/12 06:54:59;;;;;;;135.17;46.27;;;;;;;;;;5070942;28;20024;-63
2022/11/12 06:57:43;;;;;;;143.97;47.33;;;;;;;;;;5066907;28;20035;-63
2022/11/12 07:00:27;;;;;;;123.90;45.17;;;;;;;;;;5069773;28;20032;-63
2022/11/12 07:03:11;;;;;;;132.13;46.90;;;;;;;;;;5066379;28;20039;-63
2022/11/12 07:05:54;;;;;;;128.10;43.93;;;;;;;;;;5062090;28;20380;-63
2022/11/12 07:08:38;;;;;;;127.97;45.13;;;;;;;;;;5057014;28;20021;-63
2022/11/12 07:11:22;;;;;;;128.87;45.63;;;;;;;;;;5052173;28;20020;-63
2022/11/12 07:14:06;;;;;;;124.00;46.97;;;;;;;;;;5066581;28;20488;-63
2022/11/12 07:16:50;;;;;;;144.13;50.40;;;;;;;;;;5067544;28;20064;-64
2022/11/12 07:19:33;;;;;;;145.50;49.57;;;;;;;;;;5065349;28;20399;-63
2022/11/12 07:22:17;;;;;;;136.23;51.03;;;;;;;;;;5065588;28;20033;-63
2022/11/12 07:25:01;;;;;;;139.73;49.67;;;;;;;;;;5063282;28;20495;-63
2022/11/12 07:27:45;;;;;;;135.67;47.77;;;;;;;;;;5065164;28;20032;-63
2022/11/12 07:30:29;;;;;;;129.23;46.93;;;;;;;;;;5071110;28;20464;-63
2022/11/12 07:33:12;;;;;;;146.20;50.77;;;;;;;;;;5068299;28;20456;-63
2022/11/12 07:35:56;;;;;;;172.33;58.77;;;;;;;;;;5068036;28;20032;-63
2022/11/12 07:38:40;;;;;;;196.13;69.63;;;;;;;;;;5069383;28;20105;-63
2022/11/12 07:41:24;;;;;;;196.33;69.03;;;;;;;;;;5066730;28;20488;-63
2022/11/12 07:44:08;;;;;;;146.27;54.97;;;;;;;;;;5069868;28;20019;-64
2022/11/12 07:46:51;;;;;;;127.70;45.40;;;;;;;;;;5068960;28;20303;-64
2022/11/12 07:49:35;;;;;;;120.33;45.20;;;;;;;;;;5066745;28;20020;-63
2022/11/12 07:52:19;;;;;;;92.20;33.77;;;;;;;;;;5067072;28;20041;-64
2022/11/12 07:55:03;;;;;;;55.57;22.57;;;;;;;;;;5065486;28;20028;-63
2022/11/12 07:57:46;;;;;;;44.77;15.47;;;;;;;;;;5064407;28;20035;-63
2022/11/12 08:00:30;;;;;;;38.20;13.53;;;;;;;;;;5067194;28;20063;-63
2022/11/12 08:03:14;;;;;;;44.03;11.57;;;;;;;;;;5066977;28;20166;-63
2022/11/12 08:05:58;;;;;;;16.13;9.50;;;;;;;;;;5066118;28;20024;-64
2022/11/12 08:08:41;;;;;;;14.07;8.80;;;;;;;;;;5067712;28;20024;-64
2022/11/12 08:11:25;;;;;;;15.60;9.80;;;;;;;;;;5070462;28;20027;-64
2022/11/12 08:14:09;;;;;;;16.17;9.90;;;;;;;;;;5067624;28;20059;-64
2022/11/12 08:16:53;;;;;;;25.70;9.37;;;;;;;;;;5063272;28;20036;-63
2022/11/12 08:19:37;;;;;;;14.80;8.60;;;;;;;;;;5065659;28;20094;-63
2022/11/12 08:22:21;;;;;;;16.83;8.33;;;;;;;;;;5070446;28;20021;-63
2022/11/12 08:25:05;;;;;;;14.53;8.83;;;;;;;;;;5066990;28;20103;-63
2022/11/12 08:27:49;;;;;;;12.63;8.43;;;;;;;;;;5068469;28;20107;-64
2022/11/12 08:30:33;;;;;;;14.17;8.40;;;;;;;;;;5059023;28;20028;-63
2022/11/12 08:33:17;;;;;;;15.13;8.87;;;;;;;;;;5068728;28;20040;-63
2022/11/12 08:36:00;;;;;;;14.90;9.00;;;;;;;;;;5064795;28;20029;-63
2022/11/12 08:38:44;;;;;;;14.20;9.20;;;;;;;;;;5061127;28;20020;-63
2022/11/12 08:41:28;;;;;;;17.00;9.50;;;;;;;;;;5067894;28;20024;-63
2022/11/12 08:44:12;;;;;;;14.80;9.23;;;;;;;;;;5065215;28;20036;-63
2022/11/12 08:46:55;;;;;;;18.70;9.37;;;;;;;;;;5054529;28;20042;-63
2022/11/12 08:49:39;;;;;;;15.90;9.50;;;;;;;;;;5060618;28;20028;-63
2022/11/12 08:52:23;;;;;;;17.80;9.27;;;;;;;;;;5063548;28;20036;-63
2022/11/12 08:55:07;;;;;;;17.67;9.77;;;;;;;;;;5061854;28;20492;-64
2022/11/12 08:57:51;;;;;;;20.97;9.50;;;;;;;;;;5064552;28;20082;-63
2022/11/12 09:00:34;;;;;;;19.83;9.10;;;;;;;;;;5065099;28;20076;-63
2022/11/12 09:03:24;;;;;;;15.57;8.97;;;;;;;;;;5072021;28;20024;-63
2022/11/12 09:06:08;;;;;;;15.50;9.73;;;;;;;;;;5052063;28;20028;-64
2022/11/12 09:08:52;;;;;;;13.97;8.53;;;;;;;;;;5071811;28;20107;-63
2022/11/12 09:11:36;;;;;;;15.80;9.30;;;;;;;;;;5073600;28;20028;-63
2022/11/12 09:14:19;;;;;;;17.60;9.47;;;;;;;;;;5074137;28;20032;-63
2022/11/12 09:17:03;;;;;;;19.37;10.67;;;;;;;;;;5072828;28;20490;-63
2022/11/12 09:19:47;;;;;;;20.67;11.20;;;;;;;;;;5073508;28;20020;-63
2022/11/12 09:22:32;;;;;;;12.83;8.80;;;;;;;;;;5072741;28;20025;-63
2022/11/12 09:25:16;;;;;;;14.03;8.53;;;;;;;;;;5073723;28;20021;-63
2022/11/12 09:28:00;;;;;;;13.27;8.27;;;;;;;;;;5073389;28;20025;-63
2022/11/12 09:30:45;;;;;;;15.03;8.70;;;;;;;;;;5073416;28;20027;-63
2022/11/12 09:33:28;;;;;;;15.83;8.27;;;;;;;;;;5071902;28;20039;-63
2022/11/12 09:36:12;;;;;;;19.43;9.80;;;;;;;;;;5078660;28;20051;-63
2022/11/12 09:38:56;;;;;;;16.40;8.73;;;;;;;;;;5069652;28;20021;-63
2022/11/12 09:41:40;;;;;;;15.93;9.87;;;;;;;;;;5073407;28;20746;-63
2022/11/12 09:44:24;;;;;;;17.43;9.57;;;;;;;;;;5073350;28;20017;-63
2022/11/12 09:47:07;;;;;;;14.77;8.50;;;;;;;;;;5073296;28;20032;-63
2022/11/12 09:49:51;;;;;;;13.90;8.00;;;;;;;;;;5073090;28;20024;-63
2022/11/12 09:52:35;;;;;;;15.70;8.23;;;;;;;;;;5068286;28;20036;-63
2022/11/12 09:55:19;;;;;;;16.50;8.73;;;;;;;;;;5062952;28;20735;-63
2022/11/12 09:58:03;;;;;;;69.57;11.20;;;;;;;;;;5066523;28;20039;-63
2022/11/12 10:00:47;;;;;;;17.07;7.73;;;;;;;;;;5042008;28;20100;-63
2022/11/12 10:03:30;;;;;;;17.97;8.00;;;;;;;;;;5055484;28;20100;-63
2022/11/12 10:06:14;;;;;;;13.40;7.47;;;;;;;;;;5058496;28;20531;-63
2022/11/12 10:08:58;;;;;;;14.13;8.07;;;;;;;;;;5044060;28;20029;-63
2022/11/12 10:14:45;;;;;;;12.50;7.73;;;;;;;;;;5071990;28;20078;-64
2022/11/12 10:17:29;;;;;;;15.43;7.60;;;;;;;;;;5052608;28;20091;-64
2022/11/12 10:20:12;;;;;;;14.20;7.97;;;;;;;;;;5050908;28;20033;-64
2022/11/12 10:22:57;;;;;;;11.43;7.00;;;;;;;;;;5043889;28;20123;-64
2022/11/12 10:25:40;;;;;;;10.50;7.17;;;;;;;;;;5042775;28;20029;-64
2022/11/12 10:28:25;;;;;;;11.03;6.90;;;;;;;;;;5055185;28;20450;-64
2022/11/12 10:31:09;;;;;;;14.40;7.50;;;;;;;;;;5049561;28;20028;-64
2022/11/12 10:33:53;;;;;;;10.27;6.33;;;;;;;;;;5043347;28;20041;-63
2022/11/12 10:36:36;;;;;;;11.07;6.77;;;;;;;;;;5043559;28;20036;-62
2022/11/12 10:39:20;;;;;;;10.20;6.50;;;;;;;;;;5041171;28;20033;-63
2022/11/12 10:42:04;;;;;;;9.93;6.20;;;;;;;;;;5061838;28;20024;-62
2022/11/12 10:44:48;;;;;;;13.93;6.43;;;;;;;;;;5072393;28;20024;-62
2022/11/12 10:47:32;;;;;;;11.90;6.00;;;;;;;;;;5071030;28;20103;-62
2022/11/12 10:50:16;;;;;;;12.60;5.90;;;;;;;;;;5054178;28;20027;-62
2022/11/12 10:53:00;;;;;;;14.37;6.20;;;;;;;;;;5072203;28;20023;-62
2022/11/12 10:55:44;;;;;;;14.40;7.13;;;;;;;;;;5072142;28;20025;-60
2022/11/12 10:58:27;;;;;;;11.03;6.57;;;;;;;;;;5070620;28;20083;-61
2022/11/12 11:01:11;;;;;;;41.43;8.47;;;;;;;;;;5071865;28;20456;-61
2022/11/12 11:03:55;;;;;;;11.37;6.80;;;;;;;;;;5071137;28;20024;-61
2022/11/12 11:06:39;;;;;;;11.20;6.80;;;;;;;;;;5071767;28;20384;-61
2022/11/12 11:09:23;;;;;;;11.67;6.27;;;;;;;;;;5071513;28;20391;-61
2022/11/12 11:12:07;;;;;;;19.13;6.80;;;;;;;;;;5067627;28;20106;-60
2022/11/12 11:14:51;;;;;;;23.23;7.10;;;;;;;;;;5071353;28;20123;-60
2022/11/12 11:17:35;;;;;;;19.13;6.60;;;;;;;;;;5069032;28;20016;-60
2022/11/12 11:20:19;;;;;;;17.63;7.07;;;;;;;;;;5070197;28;20024;-61
2022/11/12 11:23:03;;;;;;;14.20;7.03;;;;;;;;;;5068524;28;20031;-61
2022/11/12 11:25:47;;;;;;;16.10;7.13;;;;;;;;;;5053109;28;20012;-61
2022/11/12 11:28:31;;;;;;;14.60;6.37;;;;;;;;;;5071188;28;20027;-60
2022/11/12 11:31:14;;;;;;;15.37;6.50;;;;;;;;;;5071075;28;20024;-61
2022/11/12 11:33:58;;;;;;;50.57;7.40;;;;;;;;;;5069189;28;20047;-61
2022/11/12 11:36:42;;;;;;;10.33;5.70;;;;;;;;;;5073045;28;20136;-61
2022/11/12 11:39:26;;;;;;;13.97;6.67;;;;;;;;;;5068248;28;20455;-61
2022/11/12 11:42:10;;;;;;;19.47;6.07;;;;;;;;;;5071046;28;20034;-61
2022/11/12 11:44:54;;;;;;;12.70;6.80;;;;;;;;;;5072409;28;20316;-61
2022/11/12 11:47:38;;;;;;;10.07;6.17;;;;;;;;;;5069216;28;20016;-61
2022/11/12 11:50:22;;;;;;;13.70;7.40;;;;;;;;;;5068206;28;20028;-61
2022/11/12 11:53:05;;;;;;;10.33;6.90;;;;;;;;;;5070367;28;20039;-60
2022/11/12 11:55:49;;;;;;;10.73;6.83;;;;;;;;;;5068382;28;20078;-60
2022/11/12 11:58:33;;;;;;;22.40;7.60;;;;;;;;;;5070399;28;20056;-61
2022/11/12 12:01:17;;;;;;;14.57;8.07;;;;;;;;;;5069999;28;20059;-61
2022/11/12 12:04:01;;;;;;;11.93;7.40;;;;;;;;;;5071447;28;20028;-61
2022/11/12 12:06:45;;;;;;;13.50;7.77;;;;;;;;;;5073909;28;20024;-62
2022/11/12 12:09:29;;;;;;;11.33;7.07;;;;;;;;;;5069292;28;20024;-60
2022/11/12 12:12:12;;;;;;;11.87;6.57;;;;;;;;;;5069892;28;20027;-60
2022/11/12 12:14:56;;;;;;;28.00;7.70;;;;;;;;;;5068681;28;20025;-61
2022/11/12 12:17:40;;;;;;;10.63;6.67;;;;;;;;;;5070457;28;20511;-61
2022/11/12 12:20:24;;;;;;;11.33;6.93;;;;;;;;;;5070709;28;20017;-61
2022/11/12 12:23:07;;;;;;;13.70;7.10;;;;;;;;;;5061713;28;20024;-61
2022/11/12 12:25:51;;;;;;;11.13;7.17;;;;;;;;;;5062776;28;20443;-61
2022/11/12 12:28:35;;;;;;;11.90;7.70;;;;;;;;;;5060711;28;20036;-61
2022/11/12 12:31:19;;;;;;;13.07;7.53;;;;;;;;;;5064363;28;20028;-61
2022/11/12 12:34:03;;;;;;;12.60;6.33;;;;;;;;;;5062409;28;20434;-60
2022/11/12 12:36:47;;;;;;;11.37;6.40;;;;;;;;;;5067627;28;20036;-61
2022/11/12 12:39:30;;;;;;;9.73;6.53;;;;;;;;;;5067188;28;20424;-61
2022/11/12 12:42:15;;;;;;;10.77;6.37;;;;;;;;;;5064962;28;20119;-61
2022/11/12 12:44:59;;;;;;;10.77;5.80;;;;;;;;;;5065860;28;20460;-61
2022/11/12 12:47:44;;;;;;;10.60;6.70;;;;;;;;;;5063139;28;20526;-60
2022/11/12 12:50:27;;;;;;;11.33;7.30;;;;;;;;;;5066983;28;20021;-62
2022/11/12 12:53:11;;;;;;;12.70;6.83;;;;;;;;;;5067577;28;20031;-60
2022/11/12 12:55:57;;;;;;;11.13;6.77;;;;;;;;;;5066552;28;20066;-61
2022/11/12 12:58:40;;;;;;;10.10;6.87;;;;;;;;;;5074015;28;20100;-61
2022/11/12 13:01:24;;;;;;;12.97;8.13;;;;;;;;;;5066353;28;20107;-62
2022/11/12 13:04:08;;;;;;;12.80;7.40;;;;;;;;;;5066371;28;20348;-62
2022/11/12 13:06:52;;;;;;;11.23;7.10;;;;;;;;;;5070392;28;20064;-61
2022/11/12 13:09:35;;;;;;;10.27;6.70;;;;;;;;;;5069803;28;20016;-61
2022/11/12 13:15:03;;;;;;;12.20;7.13;;;;;;;;;;5067601;28;20036;-61
2022/11/12 13:17:47;;;;;;;12.83;7.70;;;;;;;;;;5067750;28;20024;-61
2022/11/12 13:20:31;;;;;;;13.93;8.17;;;;;;;;;;5066200;28;20029;-60
2022/11/12 13:23:15;;;;;;;12.83;7.63;;;;;;;;;;5062696;28;20040;-61
2022/11/12 13:25:59;;;;;;;14.97;8.20;;;;;;;;;;5060213;28;20044;-61
2022/11/12 13:28:42;;;;;;;13.40;7.53;;;;;;;;;;5066652;28;20039;-61
2022/11/12 13:31:26;;;;;;;15.60;7.87;;;;;;;;;;5064950;28;20039;-61
2022/11/12 13:34:10;;;;;;;13.40;7.70;;;;;;;;;;5065771;28;20159;-61
2022/11/12 13:36:54;;;;;;;13.17;7.70;;;;;;;;;;5056410;28;20044;-61
2022/11/12 13:39:38;;;;;;;15.87;8.20;;;;;;;;;;5062200;28;20032;-60
2022/11/12 13:45:25;;;;;;;14.03;7.63;;;;;;;;;;5066467;28;20081;-61
2022/11/12 13:48:09;;;;;;;11.70;7.70;;;;;;;;;;5060740;28;20034;-61
2022/11/12 13:50:52;;;;;;;11.80;8.23;;;;;;;;;;5062045;28;20469;-62
2022/11/12 13:53:36;;;;;;;14.83;8.30;;;;;;;;;;5063481;28;20064;-61
2022/11/12 13:56:20;;;;;;;15.60;7.60;;;;;;;;;;5068883;28;20048;-60
2022/11/12 13:59:04;;;;;;;15.47;7.93;;;;;;;;;;5061552;28;20035;-61
2022/11/12 14:01:48;;;;;;;13.73;8.00;;;;;;;;;;5064866;28;20032;-61
2022/11/12 14:04:32;;;;;;;12.70;7.73;;;;;;;;;;5065182;28;20060;-61
2022/11/12 14:07:16;;;;;;;11.67;8.00;;;;;;;;;;5066046;28;20454;-61
2022/11/12 14:09:59;;;;;;;13.80;7.90;;;;;;;;;;5066901;28;20360;-61
2022/11/12 14:12:44;;;;;;;12.50;7.40;;;;;;;;;;5066362;28;20028;-61
2022/11/12 14:15:27;;;;;;;15.37;8.40;;;;;;;;;;5070891;28;20028;-61
2022/11/12 14:18:12;;;;;;;12.40;7.50;;;;;;;;;;5066243;28;20032;-61
2022/11/12 14:20:56;;;;;;;12.43;7.40;;;;;;;;;;5059758;28;20033;-61
2022/11/12 14:23:39;;;;;;;12.50;7.50;;;;;;;;;;5066954;28;20140;-60
2022/11/12 14:26:23;;;;;;;14.63;8.07;;;;;;;;;;5066936;28;20055;-61
2022/11/12 14:29:07;;;;;;;14.10;8.13;;;;;;;;;;5065520;28;20024;-61
2022/11/12 14:31:51;;;;;;;12.43;7.83;;;;;;;;;;5063678;28;20233;-62
2022/11/12 14:34:34;;;;;;;15.20;8.17;;;;;;;;;;5063227;28;20032;-61
2022/11/12 14:37:18;;;;;;;15.70;8.73;;;;;;;;;;5061854;28;20379;-61
2022/11/12 14:40:02;;;;;;;14.27;7.97;;;;;;;;;;5065372;28;20087;-61
2022/11/12 14:42:46;;;;;;;11.50;7.60;;;;;;;;;;5064581;28;20407;-61
2022/11/12 14:45:30;;;;;;;16.70;8.60;;;;;;;;;;5068365;28;20040;-61
2022/11/12 14:48:14;;;;;;;12.97;7.67;;;;;;;;;;5067034;28;20020;-61
2022/11/12 14:50:57;;;;;;;14.80;8.37;;;;;;;;;;5063841;28;20079;-61
2022/11/12 14:53:41;;;;;;;12.43;7.63;;;;;;;;;;5072636;28;20115;-61
2022/11/12 14:56:25;;;;;;;11.70;7.27;;;;;;;;;;5066817;28;20059;-61
2022/11/12 14:59:09;;;;;;;11.33;7.20;;;;;;;;;;5067827;28;20034;-61
2022/11/12 15:01:53;;;;;;;12.73;7.00;;;;;;;;;;5068047;28;20039;-62
2022/11/12 15:04:36;;;;;;;12.90;7.80;;;;;;;;;;5067724;28;20041;-61
2022/11/12 15:07:20;;;;;;;11.87;7.10;;;;;;;;;;5065222;28;20028;-61
2022/11/12 15:10:04;;;;;;;11.60;7.43;;;;;;;;;;5068449;28;20032;-61
2022/11/12 15:12:48;;;;;;;12.97;8.80;;;;;;;;;;5068069;28;20024;-61
2022/11/12 15:15:32;;;;;;;15.00;8.63;;;;;;;;;;5071771;28;20404;-61
2022/11/12 15:18:15;;;;;;;17.17;8.73;;;;;;;;;;5068616;28;20035;-61
2022/11/12 15:20:59;;;;;;;18.17;9.07;;;;;;;;;;5067522;28;20371;-61
2022/11/12 15:23:43;;;;;;;15.53;8.67;;;;;;;;;;5070355;28;20032;-61
2022/11/12 15:26:27;;;;;;;13.57;8.77;;;;;;;;;;5065742;28;20060;-61
2022/11/12 15:29:10;;;;;;;15.60;9.60;;;;;;;;;;5065132;28;20491;-62
2022/11/12 15:31:54;;;;;;;19.57;9.00;;;;;;;;;;5068352;28;20024;-61
2022/11/12 15:34:38;;;;;;;21.67;9.47;;;;;;;;;;5062812;28;20056;-61
2022/11/12 15:37:22;;;;;;;16.83;9.00;;;;;;;;;;5062259;28;20082;-61
2022/11/12 15:40:05;;;;;;;19.93;11.50;;;;;;;;;;5070657;28;20036;-61
2022/11/12 15:42:49;;;;;;;18.40;9.57;;;;;;;;;;5066915;28;20074;-60
2022/11/12 15:45:33;;;;;;;17.17;10.00;;;;;;;;;;5067883;28;20024;-61
2022/11/12 15:48:17;;;;;;;21.13;12.00;;;;;;;;;;5067507;28;20028;-61
2022/11/12 15:51:00;;;;;;;22.07;12.23;;;;;;;;;;5067197;28;20393;-61
2022/11/12 15:53:44;;;;;;;16.17;10.03;;;;;;;;;;5048696;28;20028;-61
2022/11/12 15:56:29;;;;;;;20.63;10.57;;;;;;;;;;5068624;28;20072;-61
2022/11/12 15:59:12;;;;;;;23.17;13.00;;;;;;;;;;5073123;28;20040;-61
2022/11/12 16:01:56;;;;;;;29.77;15.60;;;;;;;;;;5068815;28;20032;-61
2022/11/12 16:04:40;;;;;;;32.17;15.17;;;;;;;;;;5069493;28;20028;-60
2022/11/12 16:07:24;;;;;;;16.53;10.30;;;;;;;;;;5066763;28;20055;-61
2022/11/12 16:10:08;;;;;;;19.30;9.40;;;;;;;;;;5061503;28;20394;-61
2022/11/12 16:12:51;;;;;;;16.40;9.37;;;;;;;;;;5069364;28;20063;-60
2022/11/12 16:15:35;;;;;;;16.57;9.83;;;;;;;;;;5069693;28;20052;-61
2022/11/12 16:18:19;;;;;;;19.03;10.60;;;;;;;;;;5070175;28;20078;-61
2022/11/12 16:21:03;;;;;;;18.53;10.10;;;;;;;;;;5071009;28;20460;-60
2022/11/12 16:23:46;;;;;;;19.47;10.43;;;;;;;;;;5070362;28;20029;-62
2022/11/12 16:26:30;;;;;;;20.90;11.23;;;;;;;;;;5069431;28;20383;-61
2022/11/12 16:29:14;;;;;;;21.87;13.13;;;;;;;;;;5061980;28;20032;-60
2022/11/12 16:31:58;;;;;;;22.77;14.63;;;;;;;;;;5059858;28;20082;-61